Terminal Aerodrome Forecast
Issued by NWS

Home | Current Version | Previous Version | Text Only | Print | Product List | Glossary On
Versions: 1 2 3 4 5 6 7 8 9 10 11 12 13 14 15 16 17 18 19 20
000
FTUS42 KTBW 060500
TAFLAL
TAF
KLAL 060531Z 0606/0706 VRB03KT 5SM BR SCT005 OVC010
      TEMPO 0606/0610 1/4SM FG BKN004 OVC010
     FM061000 32006KT 3SM BR SCT005 BKN250
     FM061200 36005KT 5SM BR BKN030 OVC050
     FM061500 04010KT P6SM SCT015 BKN030
     FM061800 04009KT P6SM VCSH SCT020 BKN030
      AMD NOT SKED TIL 061200=

USA.gov is the U.S. government's official web portal to all federal, state and local government web resources and services.